sensor_id;sensor_type;location;lat;lon;timestamp;P1;durP1;ratioP1;P2;durP2;ratioP2
8665;SDS011;4370;48.916;8.380;2023-03-04T00:00:07;33.90;;;15.37;;
8665;SDS011;4370;48.916;8.380;2023-03-04T00:02:34;34.77;;;17.03;;
8665;SDS011;4370;48.916;8.380;2023-03-04T00:04:59;32.63;;;16.37;;
8665;SDS011;4370;48.916;8.380;2023-03-04T00:07:27;33.63;;;15.10;;
8665;SDS011;4370;48.916;8.380;2023-03-04T00:09:53;33.40;;;15.67;;
8665;SDS011;4370;48.916;8.380;2023-03-04T00:12:19;34.80;;;15.80;;
8665;SDS011;4370;48.916;8.380;2023-03-04T00:14:44;35.73;;;16.93;;
8665;SDS011;4370;48.916;8.380;2023-03-04T00:17:10;34.63;;;16.07;;
8665;SDS011;4370;48.916;8.380;2023-03-04T00:19:36;33.77;;;15.87;;
8665;SDS011;4370;48.916;8.380;2023-03-04T00:22:02;35.97;;;15.80;;
8665;SDS011;4370;48.916;8.380;2023-03-04T00:24:28;32.97;;;16.37;;
8665;SDS011;4370;48.916;8.380;2023-03-04T00:26:54;36.37;;;15.07;;
8665;SDS011;4370;48.916;8.380;2023-03-04T00:29:20;34.33;;;16.77;;
8665;SDS011;4370;48.916;8.380;2023-03-04T00:31:46;40.13;;;17.60;;
8665;SDS011;4370;48.916;8.380;2023-03-04T00:34:11;37.30;;;16.23;;
8665;SDS011;4370;48.916;8.380;2023-03-04T00:36:37;35.33;;;17.73;;
8665;SDS011;4370;48.916;8.380;2023-03-04T00:39:03;35.97;;;17.67;;
8665;SDS011;4370;48.916;8.380;2023-03-04T00:41:28;37.73;;;17.37;;
8665;SDS011;4370;48.916;8.380;2023-03-04T00:43:54;38.27;;;17.27;;
8665;SDS011;4370;48.916;8.380;2023-03-04T00:46:19;32.93;;;16.50;;
8665;SDS011;4370;48.916;8.380;2023-03-04T00:48:45;39.90;;;18.33;;
8665;SDS011;4370;48.916;8.380;2023-03-04T00:51:10;35.47;;;17.13;;
8665;SDS011;4370;48.916;8.380;2023-03-04T00:53:36;33.77;;;17.47;;
8665;SDS011;4370;48.916;8.380;2023-03-04T00:56:02;31.10;;;16.43;;
8665;SDS011;4370;48.916;8.380;2023-03-04T00:58:28;36.03;;;17.10;;
8665;SDS011;4370;48.916;8.380;2023-03-04T01:00:53;37.60;;;16.87;;
8665;SDS011;4370;48.916;8.380;2023-03-04T01:03:19;31.43;;;15.53;;
8665;SDS011;4370;48.916;8.380;2023-03-04T01:05:44;36.37;;;17.63;;
8665;SDS011;4370;48.916;8.380;2023-03-04T01:08:10;38.87;;;18.53;;
8665;SDS011;4370;48.916;8.380;2023-03-04T01:10:35;39.03;;;17.87;;
8665;SDS011;4370;48.916;8.380;2023-03-04T01:13:01;46.37;;;20.93;;
8665;SDS011;4370;48.916;8.380;2023-03-04T01:15:27;44.53;;;19.47;;
8665;SDS011;4370;48.916;8.380;2023-03-04T01:17:53;50.07;;;20.77;;
8665;SDS011;4370;48.916;8.380;2023-03-04T01:20:19;46.57;;;21.80;;
8665;SDS011;4370;48.916;8.380;2023-03-04T01:22:44;44.53;;;21.00;;
8665;SDS011;4370;48.916;8.380;2023-03-04T01:25:10;43.43;;;19.97;;
8665;SDS011;4370;48.916;8.380;2023-03-04T01:27:36;46.57;;;20.70;;
8665;SDS011;4370;48.916;8.380;2023-03-04T01:30:02;44.90;;;21.00;;
8665;SDS011;4370;48.916;8.380;2023-03-04T01:32:28;52.17;;;22.37;;
8665;SDS011;4370;48.916;8.380;2023-03-04T01:34:54;47.13;;;21.13;;
8665;SDS011;4370;48.916;8.380;2023-03-04T01:37:20;46.53;;;20.83;;
8665;SDS011;4370;48.916;8.380;2023-03-04T01:39:45;48.00;;;21.93;;
8665;SDS011;4370;48.916;8.380;2023-03-04T01:42:16;44.40;;;20.67;;
8665;SDS011;4370;48.916;8.380;2023-03-04T01:44:44;44.03;;;20.80;;
8665;SDS011;4370;48.916;8.380;2023-03-04T01:47:11;48.77;;;20.70;;
8665;SDS011;4370;48.916;8.380;2023-03-04T01:49:37;41.97;;;20.67;;
8665;SDS011;4370;48.916;8.380;2023-03-04T01:52:02;45.93;;;20.37;;
8665;SDS011;4370;48.916;8.380;2023-03-04T01:54:28;45.87;;;20.60;;
8665;SDS011;4370;48.916;8.380;2023-03-04T01:56:54;45.77;;;20.40;;
8665;SDS011;4370;48.916;8.380;2023-03-04T01:59:23;51.87;;;22.00;;
8665;SDS011;4370;48.916;8.380;2023-03-04T02:01:51;56.33;;;22.73;;
8665;SDS011;4370;48.916;8.380;2023-03-04T02:04:19;57.53;;;24.93;;
8665;SDS011;4370;48.916;8.380;2023-03-04T02:06:47;57.97;;;25.43;;
8665;SDS011;4370;48.916;8.380;2023-03-04T02:09:15;68.83;;;25.40;;
8665;SDS011;4370;48.916;8.380;2023-03-04T02:11:41;72.37;;;25.70;;
8665;SDS011;4370;48.916;8.380;2023-03-04T02:14:08;65.53;;;26.73;;
8665;SDS011;4370;48.916;8.380;2023-03-04T02:16:35;60.47;;;25.30;;
8665;SDS011;4370;48.916;8.380;2023-03-04T02:19:12;63.47;;;27.30;;
8665;SDS011;4370;48.916;8.380;2023-03-04T02:21:44;67.17;;;27.07;;
8665;SDS011;4370;48.916;8.380;2023-03-04T02:26:57;62.60;;;25.00;;
8665;SDS011;4370;48.916;8.380;2023-03-04T02:29:23;67.53;;;25.57;;
8665;SDS011;4370;48.916;8.380;2023-03-04T02:31:50;66.67;;;26.70;;
8665;SDS011;4370;48.916;8.380;2023-03-04T02:34:18;71.03;;;27.50;;
8665;SDS011;4370;48.916;8.380;2023-03-04T02:36:50;68.60;;;26.10;;
8665;SDS011;4370;48.916;8.380;2023-03-04T02:41:46;61.67;;;26.20;;
8665;SDS011;4370;48.916;8.380;2023-03-04T02:44:17;65.83;;;26.23;;
8665;SDS011;4370;48.916;8.380;2023-03-04T02:46:44;64.80;;;25.30;;
8665;SDS011;4370;48.916;8.380;2023-03-04T02:49:09;63.87;;;24.67;;
8665;SDS011;4370;48.916;8.380;2023-03-04T02:51:35;59.40;;;24.03;;
8665;SDS011;4370;48.916;8.380;2023-03-04T02:54:01;62.07;;;25.20;;
8665;SDS011;4370;48.916;8.380;2023-03-04T02:56:26;62.23;;;23.07;;
8665;SDS011;4370;48.916;8.380;2023-03-04T02:58:52;57.17;;;23.43;;
8665;SDS011;4370;48.916;8.380;2023-03-04T03:01:18;59.60;;;23.03;;
8665;SDS011;4370;48.916;8.380;2023-03-04T03:03:43;62.07;;;25.13;;
8665;SDS011;4370;48.916;8.380;2023-03-04T03:06:09;66.50;;;27.60;;
8665;SDS011;4370;48.916;8.380;2023-03-04T03:08:35;58.90;;;23.57;;
8665;SDS011;4370;48.916;8.380;2023-03-04T03:11:01;52.93;;;22.67;;
8665;SDS011;4370;48.916;8.380;2023-03-04T03:13:26;64.10;;;24.40;;
8665;SDS011;4370;48.916;8.380;2023-03-04T03:15:53;57.93;;;22.00;;
8665;SDS011;4370;48.916;8.380;2023-03-04T03:18:18;70.90;;;26.73;;
8665;SDS011;4370;48.916;8.380;2023-03-04T03:20:45;59.10;;;24.87;;
8665;SDS011;4370;48.916;8.380;2023-03-04T03:23:10;62.30;;;24.83;;
8665;SDS011;4370;48.916;8.380;2023-03-04T03:25:36;60.83;;;25.30;;
8665;SDS011;4370;48.916;8.380;2023-03-04T03:28:02;70.07;;;26.50;;
8665;SDS011;4370;48.916;8.380;2023-03-04T03:30:28;73.13;;;26.60;;
8665;SDS011;4370;48.916;8.380;2023-03-04T03:32:54;75.13;;;27.30;;
8665;SDS011;4370;48.916;8.380;2023-03-04T03:35:19;65.57;;;27.53;;
8665;SDS011;4370;48.916;8.380;2023-03-04T03:37:45;71.50;;;26.50;;
8665;SDS011;4370;48.916;8.380;2023-03-04T03:40:12;70.87;;;26.17;;
8665;SDS011;4370;48.916;8.380;2023-03-04T03:42:38;75.83;;;27.17;;
8665;SDS011;4370;48.916;8.380;2023-03-04T03:45:04;71.33;;;27.63;;
8665;SDS011;4370;48.916;8.380;2023-03-04T03:47:30;83.03;;;29.60;;
8665;SDS011;4370;48.916;8.380;2023-03-04T03:49:56;80.67;;;28.13;;
8665;SDS011;4370;48.916;8.380;2023-03-04T03:52:21;78.83;;;27.50;;
8665;SDS011;4370;48.916;8.380;2023-03-04T03:54:47;81.80;;;29.53;;
8665;SDS011;4370;48.916;8.380;2023-03-04T03:57:13;81.00;;;29.07;;
8665;SDS011;4370;48.916;8.380;2023-03-04T03:59:39;71.70;;;26.90;;
8665;SDS011;4370;48.916;8.380;2023-03-04T04:02:05;65.67;;;25.40;;
8665;SDS011;4370;48.916;8.380;2023-03-04T04:04:30;76.33;;;28.00;;
8665;SDS011;4370;48.916;8.380;2023-03-04T04:06:56;76.57;;;28.20;;
8665;SDS011;4370;48.916;8.380;2023-03-04T04:09:22;76.60;;;28.40;;
8665;SDS011;4370;48.916;8.380;2023-03-04T04:11:47;67.00;;;26.53;;
8665;SDS011;4370;48.916;8.380;2023-03-04T04:14:13;79.27;;;29.07;;
8665;SDS011;4370;48.916;8.380;2023-03-04T04:16:38;86.60;;;29.67;;
8665;SDS011;4370;48.916;8.380;2023-03-04T04:19:04;78.47;;;28.93;;
8665;SDS011;4370;48.916;8.380;2023-03-04T04:21:30;86.73;;;28.23;;
8665;SDS011;4370;48.916;8.380;2023-03-04T04:23:55;67.97;;;24.03;;
8665;SDS011;4370;48.916;8.380;2023-03-04T04:26:21;67.47;;;26.03;;
8665;SDS011;4370;48.916;8.380;2023-03-04T04:28:47;81.27;;;28.30;;
8665;SDS011;4370;48.916;8.380;2023-03-04T04:31:12;73.97;;;29.07;;
8665;SDS011;4370;48.916;8.380;2023-03-04T04:33:38;70.83;;;26.77;;
8665;SDS011;4370;48.916;8.380;2023-03-04T04:36:03;91.30;;;31.57;;
8665;SDS011;4370;48.916;8.380;2023-03-04T04:38:29;84.97;;;31.23;;
8665;SDS011;4370;48.916;8.380;2023-03-04T04:40:56;94.77;;;32.27;;
8665;SDS011;4370;48.916;8.380;2023-03-04T04:43:23;80.17;;;29.07;;
8665;SDS011;4370;48.916;8.380;2023-03-04T04:45:49;87.07;;;29.63;;
8665;SDS011;4370;48.916;8.380;2023-03-04T04:48:14;79.97;;;28.07;;
8665;SDS011;4370;48.916;8.380;2023-03-04T04:50:40;92.57;;;28.53;;
8665;SDS011;4370;48.916;8.380;2023-03-04T04:53:05;100.80;;;29.93;;
8665;SDS011;4370;48.916;8.380;2023-03-04T04:55:32;99.03;;;31.20;;
8665;SDS011;4370;48.916;8.380;2023-03-04T04:57:58;92.67;;;29.40;;
8665;SDS011;4370;48.916;8.380;2023-03-04T05:00:24;83.73;;;28.90;;
8665;SDS011;4370;48.916;8.380;2023-03-04T05:02:49;88.00;;;31.03;;
8665;SDS011;4370;48.916;8.380;2023-03-04T05:05:15;82.50;;;27.03;;
8665;SDS011;4370;48.916;8.380;2023-03-04T05:07:41;91.73;;;29.73;;
8665;SDS011;4370;48.916;8.380;2023-03-04T05:10:06;78.20;;;28.30;;
8665;SDS011;4370;48.916;8.380;2023-03-04T05:12:33;77.37;;;27.37;;
8665;SDS011;4370;48.916;8.380;2023-03-04T05:14:58;83.53;;;28.30;;
8665;SDS011;4370;48.916;8.380;2023-03-04T05:17:24;73.90;;;25.67;;
8665;SDS011;4370;48.916;8.380;2023-03-04T05:19:50;80.87;;;26.97;;
8665;SDS011;4370;48.916;8.380;2023-03-04T05:22:16;83.10;;;26.50;;
8665;SDS011;4370;48.916;8.380;2023-03-04T05:24:41;76.73;;;26.93;;
8665;SDS011;4370;48.916;8.380;2023-03-04T05:27:07;78.40;;;28.63;;
8665;SDS011;4370;48.916;8.380;2023-03-04T05:29:32;78.37;;;27.57;;
8665;SDS011;4370;48.916;8.380;2023-03-04T05:31:58;68.30;;;25.90;;
8665;SDS011;4370;48.916;8.380;2023-03-04T05:34:24;92.73;;;29.93;;
8665;SDS011;4370;48.916;8.380;2023-03-04T05:36:49;86.97;;;29.37;;
8665;SDS011;4370;48.916;8.380;2023-03-04T05:39:15;106.27;;;31.23;;
8665;SDS011;4370;48.916;8.380;2023-03-04T05:41:41;90.67;;;29.40;;
8665;SDS011;4370;48.916;8.380;2023-03-04T05:44:06;87.10;;;28.17;;
8665;SDS011;4370;48.916;8.380;2023-03-04T05:46:31;89.20;;;28.57;;
8665;SDS011;4370;48.916;8.380;2023-03-04T05:48:57;89.73;;;29.87;;
8665;SDS011;4370;48.916;8.380;2023-03-04T05:51:22;93.20;;;31.93;;
8665;SDS011;4370;48.916;8.380;2023-03-04T05:53:48;110.77;;;32.93;;
8665;SDS011;4370;48.916;8.380;2023-03-04T05:56:15;90.97;;;30.13;;
8665;SDS011;4370;48.916;8.380;2023-03-04T05:58:42;93.97;;;30.67;;
8665;SDS011;4370;48.916;8.380;2023-03-04T06:01:08;106.80;;;33.50;;
8665;SDS011;4370;48.916;8.380;2023-03-04T06:03:35;101.20;;;31.17;;
8665;SDS011;4370;48.916;8.380;2023-03-04T06:06:01;93.13;;;29.20;;
8665;SDS011;4370;48.916;8.380;2023-03-04T06:08:27;100.20;;;32.43;;
8665;SDS011;4370;48.916;8.380;2023-03-04T06:10:53;88.93;;;29.63;;
8665;SDS011;4370;48.916;8.380;2023-03-04T06:13:19;86.60;;;28.57;;
8665;SDS011;4370;48.916;8.380;2023-03-04T06:15:45;79.17;;;26.87;;
8665;SDS011;4370;48.916;8.380;2023-03-04T06:18:11;76.33;;;27.33;;
8665;SDS011;4370;48.916;8.380;2023-03-04T06:20:37;82.70;;;28.90;;
8665;SDS011;4370;48.916;8.380;2023-03-04T06:23:03;78.30;;;26.57;;
8665;SDS011;4370;48.916;8.380;2023-03-04T06:25:29;67.03;;;24.60;;
8665;SDS011;4370;48.916;8.380;2023-03-04T06:27:55;73.10;;;24.80;;
8665;SDS011;4370;48.916;8.380;2023-03-04T06:30:22;67.43;;;25.37;;
8665;SDS011;4370;48.916;8.380;2023-03-04T06:32:48;68.00;;;24.33;;
8665;SDS011;4370;48.916;8.380;2023-03-04T06:35:14;74.70;;;26.53;;
8665;SDS011;4370;48.916;8.380;2023-03-04T06:37:41;83.60;;;29.33;;
8665;SDS011;4370;48.916;8.380;2023-03-04T06:40:07;76.90;;;28.07;;
8665;SDS011;4370;48.916;8.380;2023-03-04T06:42:34;73.40;;;26.80;;
8665;SDS011;4370;48.916;8.380;2023-03-04T06:45:00;75.63;;;27.77;;
8665;SDS011;4370;48.916;8.380;2023-03-04T06:47:26;77.17;;;29.40;;
8665;SDS011;4370;48.916;8.380;2023-03-04T06:49:52;76.20;;;29.23;;
8665;SDS011;4370;48.916;8.380;2023-03-04T06:52:18;80.57;;;30.27;;
8665;SDS011;4370;48.916;8.380;2023-03-04T06:54:44;71.20;;;27.23;;
8665;SDS011;4370;48.916;8.380;2023-03-04T06:57:10;67.33;;;26.80;;
8665;SDS011;4370;48.916;8.380;2023-03-04T06:59:40;69.33;;;25.53;;
8665;SDS011;4370;48.916;8.380;2023-03-04T07:02:07;68.47;;;26.30;;
8665;SDS011;4370;48.916;8.380;2023-03-04T07:04:38;61.23;;;26.77;;
8665;SDS011;4370;48.916;8.380;2023-03-04T07:07:04;63.70;;;25.90;;
8665;SDS011;4370;48.916;8.380;2023-03-04T07:09:30;72.17;;;27.80;;
8665;SDS011;4370;48.916;8.380;2023-03-04T07:11:56;64.53;;;26.83;;
8665;SDS011;4370;48.916;8.380;2023-03-04T07:14:22;64.67;;;26.73;;
8665;SDS011;4370;48.916;8.380;2023-03-04T07:16:48;66.27;;;28.63;;
8665;SDS011;4370;48.916;8.380;2023-03-04T07:19:14;62.87;;;26.30;;
8665;SDS011;4370;48.916;8.380;2023-03-04T07:31:21;58.00;;;24.80;;
8665;SDS011;4370;48.916;8.380;2023-03-04T07:37:48;64.57;;;26.73;;
8665;SDS011;4370;48.916;8.380;2023-03-04T07:40:14;58.40;;;25.87;;
8665;SDS011;4370;48.916;8.380;2023-03-04T07:42:40;56.63;;;25.10;;
8665;SDS011;4370;48.916;8.380;2023-03-04T07:45:06;55.70;;;24.27;;
8665;SDS011;4370;48.916;8.380;2023-03-04T07:47:33;51.20;;;23.60;;
8665;SDS011;4370;48.916;8.380;2023-03-04T07:49:59;47.57;;;23.27;;
8665;SDS011;4370;48.916;8.380;2023-03-04T07:52:25;45.03;;;21.97;;
8665;SDS011;4370;48.916;8.380;2023-03-04T07:54:51;48.53;;;22.57;;
8665;SDS011;4370;48.916;8.380;2023-03-04T07:57:17;49.63;;;22.80;;
8665;SDS011;4370;48.916;8.380;2023-03-04T07:59:43;47.43;;;22.33;;
8665;SDS011;4370;48.916;8.380;2023-03-04T08:02:09;43.73;;;21.30;;
8665;SDS011;4370;48.916;8.380;2023-03-04T08:04:35;43.73;;;22.63;;
8665;SDS011;4370;48.916;8.380;2023-03-04T08:07:01;39.53;;;22.37;;
8665;SDS011;4370;48.916;8.380;2023-03-04T08:09:27;48.13;;;23.73;;
8665;SDS011;4370;48.916;8.380;2023-03-04T08:11:53;46.07;;;22.27;;
8665;SDS011;4370;48.916;8.380;2023-03-04T08:14:19;42.10;;;23.07;;
8665;SDS011;4370;48.916;8.380;2023-03-04T08:16:45;44.43;;;23.07;;
8665;SDS011;4370;48.916;8.380;2023-03-04T08:19:11;47.23;;;24.13;;
8665;SDS011;4370;48.916;8.380;2023-03-04T08:21:36;44.80;;;23.53;;
8665;SDS011;4370;48.916;8.380;2023-03-04T08:24:03;42.20;;;22.27;;
8665;SDS011;4370;48.916;8.380;2023-03-04T08:26:33;44.07;;;22.93;;
8665;SDS011;4370;48.916;8.380;2023-03-04T08:29:03;40.27;;;21.77;;
8665;SDS011;4370;48.916;8.380;2023-03-04T08:31:29;41.67;;;20.63;;
8665;SDS011;4370;48.916;8.380;2023-03-04T08:33:55;42.17;;;21.03;;
8665;SDS011;4370;48.916;8.380;2023-03-04T08:36:21;38.90;;;20.53;;
8665;SDS011;4370;48.916;8.380;2023-03-04T08:38:47;37.13;;;19.83;;
8665;SDS011;4370;48.916;8.380;2023-03-04T08:41:13;36.87;;;20.03;;
8665;SDS011;4370;48.916;8.380;2023-03-04T08:43:39;42.13;;;20.53;;
8665;SDS011;4370;48.916;8.380;2023-03-04T08:46:06;40.73;;;21.07;;
8665;SDS011;4370;48.916;8.380;2023-03-04T08:48:32;40.90;;;23.17;;
8665;SDS011;4370;48.916;8.380;2023-03-04T08:50:58;45.83;;;23.10;;
8665;SDS011;4370;48.916;8.380;2023-03-04T08:53:24;43.97;;;24.30;;
8665;SDS011;4370;48.916;8.380;2023-03-04T08:55:50;42.27;;;23.37;;
8665;SDS011;4370;48.916;8.380;2023-03-04T08:58:17;40.43;;;21.87;;
8665;SDS011;4370;48.916;8.380;2023-03-04T09:00:44;45.97;;;25.23;;
8665;SDS011;4370;48.916;8.380;2023-03-04T09:03:16;41.57;;;25.93;;
8665;SDS011;4370;48.916;8.380;2023-03-04T09:05:44;41.93;;;26.57;;
8665;SDS011;4370;48.916;8.380;2023-03-04T09:08:11;43.87;;;26.80;;
8665;SDS011;4370;48.916;8.380;2023-03-04T09:10:37;42.87;;;27.30;;
8665;SDS011;4370;48.916;8.380;2023-03-04T09:13:03;45.20;;;26.23;;
8665;SDS011;4370;48.916;8.380;2023-03-04T09:15:30;42.00;;;26.73;;
8665;SDS011;4370;48.916;8.380;2023-03-04T09:18:00;43.40;;;26.67;;
8665;SDS011;4370;48.916;8.380;2023-03-04T09:20:27;40.27;;;25.90;;
8665;SDS011;4370;48.916;8.380;2023-03-04T09:22:53;45.67;;;28.07;;
8665;SDS011;4370;48.916;8.380;2023-03-04T09:25:18;47.70;;;28.30;;
8665;SDS011;4370;48.916;8.380;2023-03-04T09:27:44;44.13;;;28.17;;
8665;SDS011;4370;48.916;8.380;2023-03-04T09:30:10;46.30;;;28.63;;
8665;SDS011;4370;48.916;8.380;2023-03-04T09:32:36;44.80;;;27.63;;
8665;SDS011;4370;48.916;8.380;2023-03-04T09:35:02;45.33;;;27.43;;
8665;SDS011;4370;48.916;8.380;2023-03-04T09:37:28;47.77;;;27.57;;
8665;SDS011;4370;48.916;8.380;2023-03-04T09:39:54;46.37;;;27.60;;
8665;SDS011;4370;48.916;8.380;2023-03-04T09:42:27;44.47;;;27.33;;
8665;SDS011;4370;48.916;8.380;2023-03-04T09:44:58;45.03;;;27.40;;
8665;SDS011;4370;48.916;8.380;2023-03-04T09:47:25;41.00;;;26.40;;
8665;SDS011;4370;48.916;8.380;2023-03-04T09:49:58;40.90;;;26.60;;
8665;SDS011;4370;48.916;8.380;2023-03-04T09:52:38;43.37;;;27.00;;
8665;SDS011;4370;48.916;8.380;2023-03-04T09:55:39;41.20;;;25.33;;
8665;SDS011;4370;48.916;8.380;2023-03-04T09:58:13;40.93;;;25.47;;
8665;SDS011;4370;48.916;8.380;2023-03-04T10:06:14;41.90;;;25.90;;
8665;SDS011;4370;48.916;8.380;2023-03-04T10:08:49;46.07;;;27.47;;
8665;SDS011;4370;48.916;8.380;2023-03-04T10:14:03;44.90;;;26.20;;
8665;SDS011;4370;48.916;8.380;2023-03-04T10:16:46;43.53;;;26.07;;
8665;SDS011;4370;48.916;8.380;2023-03-04T10:19:21;46.23;;;25.90;;
8665;SDS011;4370;48.916;8.380;2023-03-04T10:22:00;47.10;;;26.97;;
8665;SDS011;4370;48.916;8.380;2023-03-04T10:24:27;42.40;;;26.40;;
8665;SDS011;4370;48.916;8.380;2023-03-04T10:26:59;45.20;;;26.57;;
8665;SDS011;4370;48.916;8.380;2023-03-04T10:29:29;45.30;;;25.93;;
8665;SDS011;4370;48.916;8.380;2023-03-04T10:31:56;44.93;;;26.20;;
8665;SDS011;4370;48.916;8.380;2023-03-04T10:34:22;44.33;;;26.13;;
8665;SDS011;4370;48.916;8.380;2023-03-04T10:37:02;45.93;;;27.53;;
8665;SDS011;4370;48.916;8.380;2023-03-04T10:39:32;47.33;;;26.97;;
8665;SDS011;4370;48.916;8.380;2023-03-04T10:42:21;47.30;;;27.13;;
8665;SDS011;4370;48.916;8.380;2023-03-04T10:47:16;43.33;;;26.03;;
8665;SDS011;4370;48.916;8.380;2023-03-04T10:49:49;44.33;;;26.27;;
8665;SDS011;4370;48.916;8.380;2023-03-04T10:52:37;45.93;;;26.33;;
8665;SDS011;4370;48.916;8.380;2023-03-04T10:55:18;48.93;;;26.70;;
8665;SDS011;4370;48.916;8.380;2023-03-04T10:57:54;47.70;;;27.50;;
8665;SDS011;4370;48.916;8.380;2023-03-04T11:00:29;51.97;;;28.07;;
8665;SDS011;4370;48.916;8.380;2023-03-04T11:05:47;47.70;;;25.13;;
8665;SDS011;4370;48.916;8.380;2023-03-04T11:08:17;54.93;;;26.80;;
8665;SDS011;4370;48.916;8.380;2023-03-04T11:10:45;46.77;;;27.33;;
8665;SDS011;4370;48.916;8.380;2023-03-04T11:13:19;53.10;;;28.90;;
8665;SDS011;4370;48.916;8.380;2023-03-04T11:15:50;48.43;;;27.77;;
8665;SDS011;4370;48.916;8.380;2023-03-04T11:21:19;46.63;;;26.83;;
8665;SDS011;4370;48.916;8.380;2023-03-04T11:23:47;48.20;;;26.40;;
8665;SDS011;4370;48.916;8.380;2023-03-04T11:26:24;44.13;;;25.93;;
8665;SDS011;4370;48.916;8.380;2023-03-04T11:34:45;42.77;;;24.73;;
8665;SDS011;4370;48.916;8.380;2023-03-04T11:37:27;44.10;;;24.83;;
8665;SDS011;4370;48.916;8.380;2023-03-04T11:48:07;46.73;;;25.47;;
8665;SDS011;4370;48.916;8.380;2023-03-04T11:50:43;43.60;;;25.03;;
8665;SDS011;4370;48.916;8.380;2023-03-04T12:03:43;47.07;;;26.73;;
8665;SDS011;4370;48.916;8.380;2023-03-04T12:06:21;53.10;;;28.67;;
8665;SDS011;4370;48.916;8.380;2023-03-04T12:25:53;58.63;;;28.40;;
8665;SDS011;4370;48.916;8.380;2023-03-04T12:28:32;56.47;;;30.07;;
8665;SDS011;4370;48.916;8.380;2023-03-04T12:31:31;57.03;;;30.73;;
8665;SDS011;4370;48.916;8.380;2023-03-04T12:34:26;54.70;;;29.17;;
8665;SDS011;4370;48.916;8.380;2023-03-04T12:42:39;56.13;;;30.60;;
8665;SDS011;4370;48.916;8.380;2023-03-04T12:55:36;44.13;;;25.40;;
8665;SDS011;4370;48.916;8.380;2023-03-04T12:58:05;47.07;;;25.13;;
8665;SDS011;4370;48.916;8.380;2023-03-04T13:03:44;48.30;;;25.83;;
8665;SDS011;4370;48.916;8.380;2023-03-04T13:06:41;47.33;;;26.27;;
8665;SDS011;4370;48.916;8.380;2023-03-04T13:09:29;48.33;;;27.13;;
8665;SDS011;4370;48.916;8.380;2023-03-04T13:12:15;52.93;;;29.10;;
8665;SDS011;4370;48.916;8.380;2023-03-04T13:20:16;47.87;;;28.67;;
8665;SDS011;4370;48.916;8.380;2023-03-04T13:22:58;50.00;;;28.07;;
8665;SDS011;4370;48.916;8.380;2023-03-04T13:38:30;51.97;;;27.67;;
8665;SDS011;4370;48.916;8.380;2023-03-04T13:43:35;45.33;;;26.13;;
8665;SDS011;4370;48.916;8.380;2023-03-04T13:53:43;43.83;;;25.27;;
8665;SDS011;4370;48.916;8.380;2023-03-04T13:56:28;44.50;;;25.70;;
8665;SDS011;4370;48.916;8.380;2023-03-04T14:01:33;47.37;;;26.47;;
8665;SDS011;4370;48.916;8.380;2023-03-04T14:04:00;45.67;;;25.53;;
8665;SDS011;4370;48.916;8.380;2023-03-04T14:06:34;43.77;;;25.20;;
8665;SDS011;4370;48.916;8.380;2023-03-04T14:09:20;43.97;;;25.30;;
8665;SDS011;4370;48.916;8.380;2023-03-04T14:11:48;42.50;;;23.77;;
8665;SDS011;4370;48.916;8.380;2023-03-04T14:14:20;49.00;;;26.97;;
8665;SDS011;4370;48.916;8.380;2023-03-04T14:16:49;43.97;;;24.10;;
8665;SDS011;4370;48.916;8.380;2023-03-04T14:19:20;47.70;;;26.03;;
8665;SDS011;4370;48.916;8.380;2023-03-04T14:21:54;43.50;;;24.57;;
8665;SDS011;4370;48.916;8.380;2023-03-04T14:24:21;46.73;;;25.33;;
8665;SDS011;4370;48.916;8.380;2023-03-04T14:26:47;44.67;;;24.73;;
8665;SDS011;4370;48.916;8.380;2023-03-04T14:29:24;45.97;;;24.33;;
8665;SDS011;4370;48.916;8.380;2023-03-04T14:31:52;42.93;;;24.10;;
8665;SDS011;4370;48.916;8.380;2023-03-04T14:34:22;42.87;;;23.90;;
8665;SDS011;4370;48.916;8.380;2023-03-04T14:36:59;48.27;;;25.77;;
8665;SDS011;4370;48.916;8.380;2023-03-04T14:39:28;45.43;;;24.60;;
8665;SDS011;4370;48.916;8.380;2023-03-04T14:41:57;42.70;;;23.87;;
8665;SDS011;4370;48.916;8.380;2023-03-04T14:46:59;43.17;;;23.87;;
8665;SDS011;4370;48.916;8.380;2023-03-04T14:49:41;40.90;;;23.83;;
8665;SDS011;4370;48.916;8.380;2023-03-04T14:52:25;41.40;;;23.83;;
8665;SDS011;4370;48.916;8.380;2023-03-04T14:57:30;45.30;;;23.50;;
8665;SDS011;4370;48.916;8.380;2023-03-04T15:00:13;39.37;;;21.10;;
8665;SDS011;4370;48.916;8.380;2023-03-04T15:02:52;41.47;;;22.30;;
8665;SDS011;4370;48.916;8.380;2023-03-04T15:05:22;39.47;;;21.50;;
8665;SDS011;4370;48.916;8.380;2023-03-04T15:07:51;40.87;;;22.57;;
8665;SDS011;4370;48.916;8.380;2023-03-04T15:10:21;41.47;;;21.90;;
8665;SDS011;4370;48.916;8.380;2023-03-04T15:12:49;44.87;;;23.90;;
8665;SDS011;4370;48.916;8.380;2023-03-04T15:17:58;43.30;;;23.00;;
8665;SDS011;4370;48.916;8.380;2023-03-04T15:20:51;37.97;;;20.77;;
8665;SDS011;4370;48.916;8.380;2023-03-04T15:23:21;41.63;;;22.67;;
8665;SDS011;4370;48.916;8.380;2023-03-04T15:25:54;42.13;;;23.20;;
8665;SDS011;4370;48.916;8.380;2023-03-04T15:28:22;40.37;;;22.80;;
8665;SDS011;4370;48.916;8.380;2023-03-04T15:30:48;41.40;;;22.07;;
8665;SDS011;4370;48.916;8.380;2023-03-04T15:33:15;34.53;;;20.23;;
8665;SDS011;4370;48.916;8.380;2023-03-04T15:35:41;38.47;;;21.97;;
8665;SDS011;4370;48.916;8.380;2023-03-04T15:38:13;41.63;;;21.30;;
8665;SDS011;4370;48.916;8.380;2023-03-04T15:40:39;43.07;;;23.37;;
8665;SDS011;4370;48.916;8.380;2023-03-04T15:43:07;37.93;;;20.50;;
8665;SDS011;4370;48.916;8.380;2023-03-04T15:45:38;34.60;;;20.33;;
8665;SDS011;4370;48.916;8.380;2023-03-04T15:48:04;34.77;;;19.50;;
8665;SDS011;4370;48.916;8.380;2023-03-04T15:50:34;35.40;;;19.60;;
8665;SDS011;4370;48.916;8.380;2023-03-04T15:53:02;35.20;;;19.63;;
8665;SDS011;4370;48.916;8.380;2023-03-04T15:55:30;39.67;;;21.33;;
8665;SDS011;4370;48.916;8.380;2023-03-04T15:57:56;39.83;;;20.20;;
8665;SDS011;4370;48.916;8.380;2023-03-04T16:00:24;37.47;;;20.57;;
8665;SDS011;4370;48.916;8.380;2023-03-04T16:02:50;35.17;;;19.67;;
8665;SDS011;4370;48.916;8.380;2023-03-04T16:05:16;35.73;;;20.00;;
8665;SDS011;4370;48.916;8.380;2023-03-04T16:07:46;34.27;;;19.43;;
8665;SDS011;4370;48.916;8.380;2023-03-04T16:10:27;38.13;;;22.17;;
8665;SDS011;4370;48.916;8.380;2023-03-04T16:12:55;40.80;;;20.63;;
8665;SDS011;4370;48.916;8.380;2023-03-04T16:15:21;37.73;;;20.50;;
8665;SDS011;4370;48.916;8.380;2023-03-04T16:17:48;35.03;;;21.27;;
8665;SDS011;4370;48.916;8.380;2023-03-04T16:20:16;35.50;;;20.17;;
8665;SDS011;4370;48.916;8.380;2023-03-04T16:22:45;36.20;;;21.17;;
8665;SDS011;4370;48.916;8.380;2023-03-04T16:25:11;36.87;;;20.70;;
8665;SDS011;4370;48.916;8.380;2023-03-04T16:27:38;35.43;;;20.60;;
8665;SDS011;4370;48.916;8.380;2023-03-04T16:30:05;37.90;;;20.87;;
8665;SDS011;4370;48.916;8.380;2023-03-04T16:32:33;33.43;;;19.43;;
8665;SDS011;4370;48.916;8.380;2023-03-04T16:34:58;36.67;;;19.77;;
8665;SDS011;4370;48.916;8.380;2023-03-04T16:37:24;35.73;;;18.73;;
8665;SDS011;4370;48.916;8.380;2023-03-04T16:39:50;30.20;;;18.03;;
8665;SDS011;4370;48.916;8.380;2023-03-04T16:42:17;32.40;;;18.40;;
8665;SDS011;4370;48.916;8.380;2023-03-04T16:44:46;38.03;;;18.97;;
8665;SDS011;4370;48.916;8.380;2023-03-04T16:47:14;37.67;;;20.47;;
8665;SDS011;4370;48.916;8.380;2023-03-04T16:49:40;43.73;;;19.97;;
8665;SDS011;4370;48.916;8.380;2023-03-04T16:52:06;35.33;;;18.60;;
8665;SDS011;4370;48.916;8.380;2023-03-04T16:54:38;33.10;;;17.93;;
8665;SDS011;4370;48.916;8.380;2023-03-04T16:57:04;31.70;;;17.93;;
8665;SDS011;4370;48.916;8.380;2023-03-04T16:59:30;34.40;;;19.98;;
8665;SDS011;4370;48.916;8.380;2023-03-04T17:01:56;28.97;;;17.20;;
8665;SDS011;4370;48.916;8.380;2023-03-04T17:04:22;30.13;;;17.83;;
8665;SDS011;4370;48.916;8.380;2023-03-04T17:06:48;33.63;;;17.33;;
8665;SDS011;4370;48.916;8.380;2023-03-04T17:09:14;28.30;;;16.33;;